sensor_id;sensor_type;location;lat;lon;timestamp;temperature;humidity
11122;DHT22;5615;49.304;10.576;2023-08-12T00:02:24;17.90;99.90
11122;DHT22;5615;49.304;10.576;2023-08-12T00:04:51;17.90;99.90
11122;DHT22;5615;49.304;10.576;2023-08-12T00:07:17;17.90;99.90
11122;DHT22;5615;49.304;10.576;2023-08-12T00:09:44;17.90;99.90
11122;DHT22;5615;49.304;10.576;2023-08-12T00:12:10;17.80;99.90
11122;DHT22;5615;49.304;10.576;2023-08-12T00:14:37;17.80;99.90
11122;DHT22;5615;49.304;10.576;2023-08-12T00:17:05;17.70;99.90
11122;DHT22;5615;49.304;10.576;2023-08-12T00:19:32;17.70;99.90
11122;DHT22;5615;49.304;10.576;2023-08-12T00:21:58;17.70;99.90
11122;DHT22;5615;49.304;10.576;2023-08-12T00:24:25;17.60;99.90
11122;DHT22;5615;49.304;10.576;2023-08-12T00:26:51;17.60;99.90
11122;DHT22;5615;49.304;10.576;2023-08-12T00:29:18;17.60;99.90
11122;DHT22;5615;49.304;10.576;2023-08-12T00:31:45;17.60;99.90
11122;DHT22;5615;49.304;10.576;2023-08-12T00:34:13;17.50;99.90
11122;DHT22;5615;49.304;10.576;2023-08-12T00:36:39;17.50;99.90
11122;DHT22;5615;49.304;10.576;2023-08-12T00:39:06;17.50;99.90
11122;DHT22;5615;49.304;10.576;2023-08-12T00:41:32;17.50;99.90
11122;DHT22;5615;49.304;10.576;2023-08-12T00:43:59;17.50;99.90
11122;DHT22;5615;49.304;10.576;2023-08-12T00:46:26;17.40;99.90
11122;DHT22;5615;49.304;10.576;2023-08-12T00:48:52;17.40;99.90
11122;DHT22;5615;49.304;10.576;2023-08-12T00:51:20;17.40;99.90
11122;DHT22;5615;49.304;10.576;2023-08-12T00:53:48;17.40;99.90
11122;DHT22;5615;49.304;10.576;2023-08-12T00:56:16;17.40;99.90
11122;DHT22;5615;49.304;10.576;2023-08-12T00:58:43;17.40;99.90
11122;DHT22;5615;49.304;10.576;2023-08-12T01:01:11;17.40;99.90
11122;DHT22;5615;49.304;10.576;2023-08-12T01:03:38;17.30;99.90
11122;DHT22;5615;49.304;10.576;2023-08-12T01:06:07;17.30;99.90
11122;DHT22;5615;49.304;10.576;2023-08-12T01:08:35;17.30;99.90
11122;DHT22;5615;49.304;10.576;2023-08-12T01:11:05;17.30;99.90
11122;DHT22;5615;49.304;10.576;2023-08-12T01:13:41;17.20;99.90
11122;DHT22;5615;49.304;10.576;2023-08-12T01:16:13;17.20;99.90
11122;DHT22;5615;49.304;10.576;2023-08-12T01:18:41;17.20;99.90
11122;DHT22;5615;49.304;10.576;2023-08-12T01:21:12;17.10;99.90
11122;DHT22;5615;49.304;10.576;2023-08-12T01:23:43;17.20;99.90
11122;DHT22;5615;49.304;10.576;2023-08-12T01:26:10;17.20;99.90
11122;DHT22;5615;49.304;10.576;2023-08-12T01:28:37;17.10;99.90
11122;DHT22;5615;49.304;10.576;2023-08-12T01:31:07;17.10;99.90
11122;DHT22;5615;49.304;10.576;2023-08-12T01:33:44;17.10;99.90
11122;DHT22;5615;49.304;10.576;2023-08-12T01:36:15;17.10;99.90
11122;DHT22;5615;49.304;10.576;2023-08-12T01:38:44;17.00;99.90
11122;DHT22;5615;49.304;10.576;2023-08-12T01:41:12;17.00;99.90
11122;DHT22;5615;49.304;10.576;2023-08-12T01:43:40;17.00;99.90
11122;DHT22;5615;49.304;10.576;2023-08-12T01:46:07;16.90;99.90
11122;DHT22;5615;49.304;10.576;2023-08-12T01:48:34;16.80;99.90
11122;DHT22;5615;49.304;10.576;2023-08-12T01:51:01;16.80;99.90
11122;DHT22;5615;49.304;10.576;2023-08-12T01:53:28;16.80;99.90
11122;DHT22;5615;49.304;10.576;2023-08-12T01:55:56;16.90;99.90
11122;DHT22;5615;49.304;10.576;2023-08-12T01:58:23;16.80;99.90
11122;DHT22;5615;49.304;10.576;2023-08-12T02:00:51;16.70;99.90
11122;DHT22;5615;49.304;10.576;2023-08-12T02:03:18;16.70;99.90
11122;DHT22;5615;49.304;10.576;2023-08-12T02:05:44;16.60;99.90
11122;DHT22;5615;49.304;10.576;2023-08-12T02:08:11;16.60;99.90
11122;DHT22;5615;49.304;10.576;2023-08-12T02:10:39;16.70;99.90
11122;DHT22;5615;49.304;10.576;2023-08-12T02:13:07;16.60;99.90
11122;DHT22;5615;49.304;10.576;2023-08-12T02:15:34;16.70;99.90
11122;DHT22;5615;49.304;10.576;2023-08-12T02:18:00;16.60;99.90
11122;DHT22;5615;49.304;10.576;2023-08-12T02:20:27;16.60;99.90
11122;DHT22;5615;49.304;10.576;2023-08-12T02:22:53;16.50;99.90
11122;DHT22;5615;49.304;10.576;2023-08-12T02:25:20;16.60;99.90
11122;DHT22;5615;49.304;10.576;2023-08-12T02:27:47;16.60;99.90
11122;DHT22;5615;49.304;10.576;2023-08-12T02:30:15;16.50;99.90
11122;DHT22;5615;49.304;10.576;2023-08-12T02:32:41;16.60;99.90
11122;DHT22;5615;49.304;10.576;2023-08-12T02:35:09;16.50;99.90
11122;DHT22;5615;49.304;10.576;2023-08-12T02:37:35;16.50;99.90
11122;DHT22;5615;49.304;10.576;2023-08-12T02:40:02;16.50;99.90
11122;DHT22;5615;49.304;10.576;2023-08-12T02:42:31;16.50;99.90
11122;DHT22;5615;49.304;10.576;2023-08-12T02:44:57;16.50;99.90
11122;DHT22;5615;49.304;10.576;2023-08-12T02:47:26;16.40;99.90
11122;DHT22;5615;49.304;10.576;2023-08-12T02:49:53;16.40;99.90
11122;DHT22;5615;49.304;10.576;2023-08-12T02:52:19;16.40;99.90
11122;DHT22;5615;49.304;10.576;2023-08-12T02:54:46;16.40;99.90
11122;DHT22;5615;49.304;10.576;2023-08-12T02:57:13;16.40;99.90
11122;DHT22;5615;49.304;10.576;2023-08-12T02:59:39;16.40;99.90
11122;DHT22;5615;49.304;10.576;2023-08-12T03:02:06;16.40;99.90
11122;DHT22;5615;49.304;10.576;2023-08-12T03:04:34;16.30;99.90
11122;DHT22;5615;49.304;10.576;2023-08-12T03:07:00;16.30;99.90
11122;DHT22;5615;49.304;10.576;2023-08-12T03:09:28;16.20;99.90
11122;DHT22;5615;49.304;10.576;2023-08-12T03:11:55;16.20;99.90
11122;DHT22;5615;49.304;10.576;2023-08-12T03:14:21;16.20;99.90
11122;DHT22;5615;49.304;10.576;2023-08-12T03:16:48;16.20;99.90
11122;DHT22;5615;49.304;10.576;2023-08-12T03:19:15;16.20;99.90
11122;DHT22;5615;49.304;10.576;2023-08-12T03:21:43;16.20;99.90
11122;DHT22;5615;49.304;10.576;2023-08-12T03:24:09;16.20;99.90
11122;DHT22;5615;49.304;10.576;2023-08-12T03:26:36;16.10;99.90
11122;DHT22;5615;49.304;10.576;2023-08-12T03:29:03;16.20;99.90
11122;DHT22;5615;49.304;10.576;2023-08-12T03:31:29;16.10;99.90
11122;DHT22;5615;49.304;10.576;2023-08-12T03:33:56;16.20;99.90
11122;DHT22;5615;49.304;10.576;2023-08-12T03:36:22;16.10;99.90
11122;DHT22;5615;49.304;10.576;2023-08-12T03:38:50;16.10;99.90
11122;DHT22;5615;49.304;10.576;2023-08-12T03:41:17;16.10;99.90
11122;DHT22;5615;49.304;10.576;2023-08-12T03:43:43;16.10;99.90
11122;DHT22;5615;49.304;10.576;2023-08-12T03:46:11;16.10;99.90
11122;DHT22;5615;49.304;10.576;2023-08-12T03:48:38;16.10;99.90
11122;DHT22;5615;49.304;10.576;2023-08-12T03:51:04;16.10;99.90
11122;DHT22;5615;49.304;10.576;2023-08-12T03:53:31;16.10;99.90
11122;DHT22;5615;49.304;10.576;2023-08-12T03:55:59;16.10;99.90
11122;DHT22;5615;49.304;10.576;2023-08-12T03:58:25;16.10;99.90
11122;DHT22;5615;49.304;10.576;2023-08-12T04:00:52;16.10;99.90
11122;DHT22;5615;49.304;10.576;2023-08-12T04:03:19;16.10;99.90
11122;DHT22;5615;49.304;10.576;2023-08-12T04:05:49;16.10;99.90
11122;DHT22;5615;49.304;10.576;2023-08-12T04:08:17;16.10;99.90
11122;DHT22;5615;49.304;10.576;2023-08-12T04:10:45;16.10;99.90
11122;DHT22;5615;49.304;10.576;2023-08-12T04:13:14;16.10;99.90
11122;DHT22;5615;49.304;10.576;2023-08-12T04:15:41;16.10;99.90
11122;DHT22;5615;49.304;10.576;2023-08-12T04:18:08;16.10;99.90
11122;DHT22;5615;49.304;10.576;2023-08-12T04:20:35;16.10;99.90
11122;DHT22;5615;49.304;10.576;2023-08-12T04:23:03;16.10;99.90
11122;DHT22;5615;49.304;10.576;2023-08-12T04:25:30;16.20;99.90
11122;DHT22;5615;49.304;10.576;2023-08-12T04:27:56;16.20;99.90
11122;DHT22;5615;49.304;10.576;2023-08-12T04:30:24;16.20;99.90
11122;DHT22;5615;49.304;10.576;2023-08-12T04:32:51;16.30;99.90
11122;DHT22;5615;49.304;10.576;2023-08-12T04:35:18;16.30;99.90
11122;DHT22;5615;49.304;10.576;2023-08-12T04:37:45;16.40;99.90
11122;DHT22;5615;49.304;10.576;2023-08-12T04:40:11;16.50;99.90
11122;DHT22;5615;49.304;10.576;2023-08-12T04:42:38;16.50;99.90
11122;DHT22;5615;49.304;10.576;2023-08-12T04:45:05;16.60;99.90
11122;DHT22;5615;49.304;10.576;2023-08-12T04:47:34;16.60;99.90
11122;DHT22;5615;49.304;10.576;2023-08-12T04:50:01;16.60;99.90
11122;DHT22;5615;49.304;10.576;2023-08-12T04:52:28;16.60;99.90
11122;DHT22;5615;49.304;10.576;2023-08-12T04:54:54;16.70;99.90
11122;DHT22;5615;49.304;10.576;2023-08-12T04:57:21;16.70;99.90
11122;DHT22;5615;49.304;10.576;2023-08-12T04:59:48;16.80;99.90
11122;DHT22;5615;49.304;10.576;2023-08-12T05:02:14;16.90;99.90
11122;DHT22;5615;49.304;10.576;2023-08-12T05:04:42;17.00;99.90
11122;DHT22;5615;49.304;10.576;2023-08-12T05:07:09;17.20;99.90
11122;DHT22;5615;49.304;10.576;2023-08-12T05:09:35;17.40;99.90
11122;DHT22;5615;49.304;10.576;2023-08-12T05:12:02;17.50;99.90
11122;DHT22;5615;49.304;10.576;2023-08-12T05:14:29;17.60;99.90
11122;DHT22;5615;49.304;10.576;2023-08-12T05:16:56;17.80;99.90
11122;DHT22;5615;49.304;10.576;2023-08-12T05:19:22;18.00;99.90
11122;DHT22;5615;49.304;10.576;2023-08-12T05:21:50;18.20;99.90
11122;DHT22;5615;49.304;10.576;2023-08-12T05:24:17;18.30;99.90
11122;DHT22;5615;49.304;10.576;2023-08-12T05:26:43;18.40;99.90
11122;DHT22;5615;49.304;10.576;2023-08-12T05:29:10;18.50;99.90
11122;DHT22;5615;49.304;10.576;2023-08-12T05:31:37;18.60;99.90
11122;DHT22;5615;49.304;10.576;2023-08-12T05:34:04;18.70;99.90
11122;DHT22;5615;49.304;10.576;2023-08-12T05:36:30;18.90;99.90
11122;DHT22;5615;49.304;10.576;2023-08-12T05:38:58;19.00;99.90
11122;DHT22;5615;49.304;10.576;2023-08-12T05:41:25;19.10;99.90
11122;DHT22;5615;49.304;10.576;2023-08-12T05:43:52;19.20;99.90
11122;DHT22;5615;49.304;10.576;2023-08-12T05:46:19;19.40;99.90
11122;DHT22;5615;49.304;10.576;2023-08-12T05:48:46;19.50;99.90
11122;DHT22;5615;49.304;10.576;2023-08-12T05:51:12;19.60;99.90
11122;DHT22;5615;49.304;10.576;2023-08-12T05:53:39;19.70;99.90
11122;DHT22;5615;49.304;10.576;2023-08-12T05:56:07;19.80;99.90
11122;DHT22;5615;49.304;10.576;2023-08-12T05:58:33;19.80;99.90
11122;DHT22;5615;49.304;10.576;2023-08-12T06:01:00;19.80;99.90
11122;DHT22;5615;49.304;10.576;2023-08-12T06:03:27;19.80;99.90
11122;DHT22;5615;49.304;10.576;2023-08-12T06:05:53;19.80;99.90
11122;DHT22;5615;49.304;10.576;2023-08-12T06:08:20;19.90;99.90
11122;DHT22;5615;49.304;10.576;2023-08-12T06:10:46;19.90;99.90
11122;DHT22;5615;49.304;10.576;2023-08-12T06:13:14;20.00;99.90
11122;DHT22;5615;49.304;10.576;2023-08-12T06:15:41;20.10;99.90
11122;DHT22;5615;49.304;10.576;2023-08-12T06:18:08;20.20;99.90
11122;DHT22;5615;49.304;10.576;2023-08-12T06:20:34;20.30;99.90
11122;DHT22;5615;49.304;10.576;2023-08-12T06:23:01;20.50;99.90
11122;DHT22;5615;49.304;10.576;2023-08-12T06:25:28;20.60;99.90
11122;DHT22;5615;49.304;10.576;2023-08-12T06:27:54;20.70;99.90
11122;DHT22;5615;49.304;10.576;2023-08-12T06:30:22;20.90;99.90
11122;DHT22;5615;49.304;10.576;2023-08-12T06:32:49;21.10;99.90
11122;DHT22;5615;49.304;10.576;2023-08-12T06:35:15;21.10;99.90
11122;DHT22;5615;49.304;10.576;2023-08-12T06:37:42;21.40;99.90
11122;DHT22;5615;49.304;10.576;2023-08-12T06:40:09;21.60;99.90
11122;DHT22;5615;49.304;10.576;2023-08-12T06:42:36;21.70;99.90
11122;DHT22;5615;49.304;10.576;2023-08-12T06:45:03;21.70;99.90
11122;DHT22;5615;49.304;10.576;2023-08-12T06:47:31;21.90;99.90
11122;DHT22;5615;49.304;10.576;2023-08-12T06:49:58;22.00;99.90
11122;DHT22;5615;49.304;10.576;2023-08-12T06:52:24;22.10;99.90
11122;DHT22;5615;49.304;10.576;2023-08-12T06:54:51;22.30;99.90
11122;DHT22;5615;49.304;10.576;2023-08-12T06:57:18;22.30;99.90
11122;DHT22;5615;49.304;10.576;2023-08-12T06:59:44;22.60;99.90
11122;DHT22;5615;49.304;10.576;2023-08-12T07:02:11;22.70;99.90
11122;DHT22;5615;49.304;10.576;2023-08-12T07:04:39;22.60;99.90
11122;DHT22;5615;49.304;10.576;2023-08-12T07:07:06;22.80;99.90
11122;DHT22;5615;49.304;10.576;2023-08-12T07:09:33;22.70;99.90
11122;DHT22;5615;49.304;10.576;2023-08-12T07:11:59;22.80;99.90
11122;DHT22;5615;49.304;10.576;2023-08-12T07:14:27;22.90;99.90
11122;DHT22;5615;49.304;10.576;2023-08-12T07:16:54;23.10;99.90
11122;DHT22;5615;49.304;10.576;2023-08-12T07:19:21;22.90;99.90
11122;DHT22;5615;49.304;10.576;2023-08-12T07:21:49;23.10;99.90
11122;DHT22;5615;49.304;10.576;2023-08-12T07:24:16;23.00;99.90
11122;DHT22;5615;49.304;10.576;2023-08-12T07:26:43;22.90;99.90
11122;DHT22;5615;49.304;10.576;2023-08-12T07:29:09;23.10;99.90
11122;DHT22;5615;49.304;10.576;2023-08-12T07:31:36;23.10;99.90
11122;DHT22;5615;49.304;10.576;2023-08-12T07:34:03;23.10;99.90
11122;DHT22;5615;49.304;10.576;2023-08-12T07:36:31;22.80;99.90
11122;DHT22;5615;49.304;10.576;2023-08-12T07:38:59;23.00;99.90
11122;DHT22;5615;49.304;10.576;2023-08-12T07:41:26;23.10;99.90
11122;DHT22;5615;49.304;10.576;2023-08-12T07:43:53;23.30;99.90
11122;DHT22;5615;49.304;10.576;2023-08-12T07:46:20;23.30;99.90
11122;DHT22;5615;49.304;10.576;2023-08-12T07:48:46;23.30;99.90
11122;DHT22;5615;49.304;10.576;2023-08-12T07:51:13;23.40;99.90
11122;DHT22;5615;49.304;10.576;2023-08-12T07:53:40;23.50;99.90
11122;DHT22;5615;49.304;10.576;2023-08-12T07:56:08;23.60;99.90
11122;DHT22;5615;49.304;10.576;2023-08-12T07:58:35;23.80;99.90
11122;DHT22;5615;49.304;10.576;2023-08-12T08:01:01;23.90;99.90
11122;DHT22;5615;49.304;10.576;2023-08-12T08:03:30;24.00;99.90
11122;DHT22;5615;49.304;10.576;2023-08-12T08:05:57;24.10;99.90
11122;DHT22;5615;49.304;10.576;2023-08-12T08:08:23;24.20;99.90
11122;DHT22;5615;49.304;10.576;2023-08-12T08:10:50;24.50;99.90
11122;DHT22;5615;49.304;10.576;2023-08-12T08:13:18;25.10;99.90
11122;DHT22;5615;49.304;10.576;2023-08-12T08:15:45;25.90;99.90
11122;DHT22;5615;49.304;10.576;2023-08-12T08:18:11;26.20;99.90
11122;DHT22;5615;49.304;10.576;2023-08-12T08:20:39;26.30;99.90
11122;DHT22;5615;49.304;10.576;2023-08-12T08:23:05;25.90;99.90
11122;DHT22;5615;49.304;10.576;2023-08-12T08:25:32;25.70;99.90
11122;DHT22;5615;49.304;10.576;2023-08-12T08:27:59;25.30;99.90
11122;DHT22;5615;49.304;10.576;2023-08-12T08:30:27;25.10;99.90
11122;DHT22;5615;49.304;10.576;2023-08-12T08:32:53;25.10;99.90
11122;DHT22;5615;49.304;10.576;2023-08-12T08:35:20;25.30;99.90
11122;DHT22;5615;49.304;10.576;2023-08-12T08:37:47;25.70;99.90
11122;DHT22;5615;49.304;10.576;2023-08-12T08:40:13;26.00;99.90
11122;DHT22;5615;49.304;10.576;2023-08-12T08:42:41;26.10;99.90
11122;DHT22;5615;49.304;10.576;2023-08-12T08:45:13;26.40;99.90
11122;DHT22;5615;49.304;10.576;2023-08-12T08:47:42;26.40;99.90
11122;DHT22;5615;49.304;10.576;2023-08-12T08:50:09;26.50;99.90
11122;DHT22;5615;49.304;10.576;2023-08-12T08:52:36;26.60;99.90
11122;DHT22;5615;49.304;10.576;2023-08-12T08:55:04;26.40;99.90
11122;DHT22;5615;49.304;10.576;2023-08-12T08:57:30;26.40;99.90
11122;DHT22;5615;49.304;10.576;2023-08-12T08:59:58;26.30;99.90
11122;DHT22;5615;49.304;10.576;2023-08-12T09:02:24;26.30;99.90
11122;DHT22;5615;49.304;10.576;2023-08-12T09:04:53;26.30;99.90
11122;DHT22;5615;49.304;10.576;2023-08-12T09:07:21;26.40;99.90
11122;DHT22;5615;49.304;10.576;2023-08-12T09:09:48;26.30;99.90
11122;DHT22;5615;49.304;10.576;2023-08-12T09:12:18;26.40;99.90
11122;DHT22;5615;49.304;10.576;2023-08-12T09:14:46;26.20;99.90
11122;DHT22;5615;49.304;10.576;2023-08-12T09:17:12;26.40;99.90
11122;DHT22;5615;49.304;10.576;2023-08-12T09:19:39;26.90;99.90
11122;DHT22;5615;49.304;10.576;2023-08-12T09:22:07;27.60;99.90
11122;DHT22;5615;49.304;10.576;2023-08-12T09:24:35;27.90;99.90
11122;DHT22;5615;49.304;10.576;2023-08-12T09:27:02;28.10;99.90
11122;DHT22;5615;49.304;10.576;2023-08-12T09:29:30;28.30;99.90
11122;DHT22;5615;49.304;10.576;2023-08-12T09:32:05;28.40;99.90
11122;DHT22;5615;49.304;10.576;2023-08-12T09:34:32;29.00;99.90
11122;DHT22;5615;49.304;10.576;2023-08-12T09:36:59;28.60;99.90
11122;DHT22;5615;49.304;10.576;2023-08-12T09:39:28;28.70;99.90
11122;DHT22;5615;49.304;10.576;2023-08-12T09:41:56;28.60;99.90
11122;DHT22;5615;49.304;10.576;2023-08-12T09:44:23;28.60;99.90
11122;DHT22;5615;49.304;10.576;2023-08-12T09:46:56;29.10;99.90
11122;DHT22;5615;49.304;10.576;2023-08-12T09:49:23;29.20;99.90
11122;DHT22;5615;49.304;10.576;2023-08-12T09:51:50;29.80;99.90
11122;DHT22;5615;49.304;10.576;2023-08-12T09:54:17;30.10;99.90
11122;DHT22;5615;49.304;10.576;2023-08-12T09:56:48;30.30;99.90
11122;DHT22;5615;49.304;10.576;2023-08-12T09:59:17;30.00;99.90
11122;DHT22;5615;49.304;10.576;2023-08-12T10:01:45;30.10;99.90
11122;DHT22;5615;49.304;10.576;2023-08-12T10:04:14;30.40;99.90
11122;DHT22;5615;49.304;10.576;2023-08-12T10:06:44;30.00;99.90
11122;DHT22;5615;49.304;10.576;2023-08-12T10:09:11;30.40;99.90
11122;DHT22;5615;49.304;10.576;2023-08-12T10:11:38;30.50;99.90
11122;DHT22;5615;49.304;10.576;2023-08-12T10:14:06;31.60;99.90
11122;DHT22;5615;49.304;10.576;2023-08-12T10:16:34;32.70;99.90
11122;DHT22;5615;49.304;10.576;2023-08-12T10:19:02;33.40;99.90
11122;DHT22;5615;49.304;10.576;2023-08-12T10:21:30;33.00;99.90
11122;DHT22;5615;49.304;10.576;2023-08-12T10:23:58;32.80;99.90
11122;DHT22;5615;49.304;10.576;2023-08-12T10:26:25;32.90;99.90
11122;DHT22;5615;49.304;10.576;2023-08-12T10:28:52;32.70;99.90
11122;DHT22;5615;49.304;10.576;2023-08-12T10:31:20;32.50;99.90
11122;DHT22;5615;49.304;10.576;2023-08-12T10:33:47;33.20;99.90
11122;DHT22;5615;49.304;10.576;2023-08-12T10:36:15;33.30;99.90
11122;DHT22;5615;49.304;10.576;2023-08-12T10:38:44;33.90;99.90
11122;DHT22;5615;49.304;10.576;2023-08-12T10:41:16;33.20;99.90
11122;DHT22;5615;49.304;10.576;2023-08-12T10:43:51;33.60;99.90
11122;DHT22;5615;49.304;10.576;2023-08-12T10:46:26;34.10;99.90
11122;DHT22;5615;49.304;10.576;2023-08-12T10:48:58;34.50;99.90
11122;DHT22;5615;49.304;10.576;2023-08-12T10:51:40;35.10;99.90
11122;DHT22;5615;49.304;10.576;2023-08-12T10:54:14;33.90;99.90
11122;DHT22;5615;49.304;10.576;2023-08-12T10:57:07;33.20;99.90
11122;DHT22;5615;49.304;10.576;2023-08-12T10:59:53;33.00;99.90
11122;DHT22;5615;49.304;10.576;2023-08-12T11:02:25;33.70;99.90
11122;DHT22;5615;49.304;10.576;2023-08-12T11:04:53;34.20;99.60
11122;DHT22;5615;49.304;10.576;2023-08-12T11:07:22;33.50;99.50
11122;DHT22;5615;49.304;10.576;2023-08-12T11:09:52;33.30;99.80
11122;DHT22;5615;49.304;10.576;2023-08-12T11:12:28;32.10;99.90
11122;DHT22;5615;49.304;10.576;2023-08-12T11:14:57;31.70;99.90
11122;DHT22;5615;49.304;10.576;2023-08-12T11:17:29;32.70;99.90
11122;DHT22;5615;49.304;10.576;2023-08-12T11:19:57;33.50;99.50
11122;DHT22;5615;49.304;10.576;2023-08-12T11:22:24;33.80;98.70
11122;DHT22;5615;49.304;10.576;2023-08-12T11:24:51;34.60;98.60
11122;DHT22;5615;49.304;10.576;2023-08-12T11:27:19;34.00;98.30
11122;DHT22;5615;49.304;10.576;2023-08-12T11:29:45;33.30;99.10
11122;DHT22;5615;49.304;10.576;2023-08-12T11:32:12;33.10;99.00
11122;DHT22;5615;49.304;10.576;2023-08-12T11:34:40;32.60;98.70
11122;DHT22;5615;49.304;10.576;2023-08-12T11:37:07;31.80;98.70
11122;DHT22;5615;49.304;10.576;2023-08-12T11:39:34;31.40;99.80
11122;DHT22;5615;49.304;10.576;2023-08-12T11:42:01;31.40;99.90
11122;DHT22;5615;49.304;10.576;2023-08-12T11:44:27;31.70;99.90
11122;DHT22;5615;49.304;10.576;2023-08-12T11:46:54;33.20;98.50
11122;DHT22;5615;49.304;10.576;2023-08-12T11:49:20;35.10;97.00
11122;DHT22;5615;49.304;10.576;2023-08-12T11:51:48;36.40;96.10
11122;DHT22;5615;49.304;10.576;2023-08-12T11:54:16;38.00;94.10
11122;DHT22;5615;49.304;10.576;2023-08-12T11:56:43;38.80;91.30
11122;DHT22;5615;49.304;10.576;2023-08-12T11:59:10;39.70;88.50
11122;DHT22;5615;49.304;10.576;2023-08-12T12:01:37;41.00;82.60
11122;DHT22;5615;49.304;10.576;2023-08-12T12:04:04;40.30;77.70
11122;DHT22;5615;49.304;10.576;2023-08-12T12:06:32;40.50;74.70
11122;DHT22;5615;49.304;10.576;2023-08-12T12:09:04;39.40;74.60
11122;DHT22;5615;49.304;10.576;2023-08-12T12:11:32;38.50;73.20
11122;DHT22;5615;49.304;10.576;2023-08-12T12:14:01;37.90;74.20
11122;DHT22;5615;49.304;10.576;2023-08-12T12:16:37;39.10;73.60
11122;DHT22;5615;49.304;10.576;2023-08-12T12:19:04;38.20;73.60
11122;DHT22;5615;49.304;10.576;2023-08-12T12:21:38;37.30;75.90
11122;DHT22;5615;49.304;10.576;2023-08-12T12:24:08;38.00;75.50
11122;DHT22;5615;49.304;10.576;2023-08-12T12:26:34;37.60;75.00
11122;DHT22;5615;49.304;10.576;2023-08-12T12:29:02;40.30;74.50
11122;DHT22;5615;49.304;10.576;2023-08-12T12:31:28;41.50;68.00
11122;DHT22;5615;49.304;10.576;2023-08-12T12:33:55;39.60;66.50
11122;DHT22;5615;49.304;10.576;2023-08-12T12:36:22;37.70;67.60
11122;DHT22;5615;49.304;10.576;2023-08-12T12:38:49;35.70;71.30
11122;DHT22;5615;49.304;10.576;2023-08-12T12:41:17;34.90;72.80
11122;DHT22;5615;49.304;10.576;2023-08-12T12:43:44;33.50;76.00
11122;DHT22;5615;49.304;10.576;2023-08-12T12:46:11;32.70;79.90
11122;DHT22;5615;49.304;10.576;2023-08-12T12:48:37;32.90;81.90
11122;DHT22;5615;49.304;10.576;2023-08-12T12:51:04;33.20;81.90
11122;DHT22;5615;49.304;10.576;2023-08-12T12:53:31;33.20;81.90
11122;DHT22;5615;49.304;10.576;2023-08-12T12:55:57;33.00;81.70
11122;DHT22;5615;49.304;10.576;2023-08-12T12:58:30;32.50;82.80
11122;DHT22;5615;49.304;10.576;2023-08-12T13:00:57;32.30;83.20
11122;DHT22;5615;49.304;10.576;2023-08-12T13:03:24;32.50;83.90
11122;DHT22;5615;49.304;10.576;2023-08-12T13:05:50;32.30;84.70
11122;DHT22;5615;49.304;10.576;2023-08-12T13:08:17;32.40;85.30
11122;DHT22;5615;49.304;10.576;2023-08-12T13:10:44;32.80;85.40
11122;DHT22;5615;49.304;10.576;2023-08-12T13:13:13;32.90;84.70
11122;DHT22;5615;49.304;10.576;2023-08-12T13:15:42;31.80;86.40
11122;DHT22;5615;49.304;10.576;2023-08-12T13:18:09;31.80;86.70
11122;DHT22;5615;49.304;10.576;2023-08-12T13:20:36;31.30;85.70
11122;DHT22;5615;49.304;10.576;2023-08-12T13:23:03;31.00;86.40
11122;DHT22;5615;49.304;10.576;2023-08-12T13:25:31;30.80;86.70
11122;DHT22;5615;49.304;10.576;2023-08-12T13:27:59;30.50;89.10
11122;DHT22;5615;49.304;10.576;2023-08-12T13:30:25;30.20;90.30
11122;DHT22;5615;49.304;10.576;2023-08-12T13:32:53;30.00;90.60
11122;DHT22;5615;49.304;10.576;2023-08-12T13:35:20;29.90;90.90
11122;DHT22;5615;49.304;10.576;2023-08-12T13:37:47;30.00;91.00
11122;DHT22;5615;49.304;10.576;2023-08-12T13:40:13;29.60;91.70
11122;DHT22;5615;49.304;10.576;2023-08-12T13:42:40;29.30;92.90
11122;DHT22;5615;49.304;10.576;2023-08-12T13:45:08;29.00;93.80
11122;DHT22;5615;49.304;10.576;2023-08-12T13:47:35;28.90;94.40
11122;DHT22;5615;49.304;10.576;2023-08-12T13:50:03;28.70;95.50
11122;DHT22;5615;49.304;10.576;2023-08-12T13:52:30;28.50;98.10
11122;DHT22;5615;49.304;10.576;2023-08-12T13:54:57;27.70;99.90
11122;DHT22;5615;49.304;10.576;2023-08-12T13:57:23;26.90;99.90
11122;DHT22;5615;49.304;10.576;2023-08-12T13:59:50;26.60;99.90
11122;DHT22;5615;49.304;10.576;2023-08-12T14:02:17;26.30;99.90
11122;DHT22;5615;49.304;10.576;2023-08-12T14:04:43;25.70;99.90
11122;DHT22;5615;49.304;10.576;2023-08-12T14:07:11;25.10;99.90
11122;DHT22;5615;49.304;10.576;2023-08-12T14:09:38;24.80;99.90
11122;DHT22;5615;49.304;10.576;2023-08-12T14:12:05;24.60;99.90
11122;DHT22;5615;49.304;10.576;2023-08-12T14:14:32;24.40;99.90
11122;DHT22;5615;49.304;10.576;2023-08-12T14:16:58;24.20;99.90
11122;DHT22;5615;49.304;10.576;2023-08-12T14:19:25;24.10;99.90
11122;DHT22;5615;49.304;10.576;2023-08-12T14:21:52;23.70;99.90
11122;DHT22;5615;49.304;10.576;2023-08-12T14:24:20;23.30;99.90
11122;DHT22;5615;49.304;10.576;2023-08-12T14:26:46;23.00;99.90
11122;DHT22;5615;49.304;10.576;2023-08-12T14:29:13;22.70;99.90
11122;DHT22;5615;49.304;10.576;2023-08-12T14:31:40;22.20;99.90
11122;DHT22;5615;49.304;10.576;2023-08-12T14:34:06;21.80;99.90
11122;DHT22;5615;49.304;10.576;2023-08-12T14:36:33;21.40;99.90
11122;DHT22;5615;49.304;10.576;2023-08-12T14:39:01;20.80;99.90
11122;DHT22;5615;49.304;10.576;2023-08-12T14:41:29;20.50;99.90
11122;DHT22;5615;49.304;10.576;2023-08-12T14:43:56;20.60;99.90
11122;DHT22;5615;49.304;10.576;2023-08-12T14:46:22;20.40;99.90
11122;DHT22;5615;49.304;10.576;2023-08-12T14:48:49;20.30;99.90
11122;DHT22;5615;49.304;10.576;2023-08-12T14:51:16;20.30;99.90
11122;DHT22;5615;49.304;10.576;2023-08-12T14:53:42;20.40;99.90
11122;DHT22;5615;49.304;10.576;2023-08-12T14:56:09;20.40;99.90
11122;DHT22;5615;49.304;10.576;2023-08-12T14:58:37;20.50;99.90
11122;DHT22;5615;49.304;10.576;2023-08-12T15:01:04;20.50;99.90
11122;DHT22;5615;49.304;10.576;2023-08-12T15:03:30;20.80;99.90
11122;DHT22;5615;49.304;10.576;2023-08-12T15:06:00;20.70;99.90
11122;DHT22;5615;49.304;10.576;2023-08-12T15:08:27;20.90;99.90
11122;DHT22;5615;49.304;10.576;2023-08-12T15:10:54;20.90;99.90
11122;DHT22;5615;49.304;10.576;2023-08-12T15:13:21;21.10;99.90
11122;DHT22;5615;49.304;10.576;2023-08-12T15:15:50;21.20;99.90
11122;DHT22;5615;49.304;10.576;2023-08-12T15:18:17;21.30;99.90
11122;DHT22;5615;49.304;10.576;2023-08-12T15:20:44;21.50;99.90
11122;DHT22;5615;49.304;10.576;2023-08-12T15:23:11;21.60;99.90
11122;DHT22;5615;49.304;10.576;2023-08-12T15:25:37;21.70;99.90
11122;DHT22;5615;49.304;10.576;2023-08-12T15:28:04;21.90;99.90
11122;DHT22;5615;49.304;10.576;2023-08-12T15:30:31;22.10;99.90
11122;DHT22;5615;49.304;10.576;2023-08-12T15:32:59;22.30;99.90